sensor_id;sensor_type;location;lat;lon;timestamp;temperature;humidity
18388;DHT22;9320;50.256;19.026;2022-11-20T00:01:22;-2.20;99.90
18388;DHT22;9320;50.256;19.026;2022-11-20T00:03:51;-2.10;99.90
18388;DHT22;9320;50.256;19.026;2022-11-20T00:06:20;-2.10;99.90
18388;DHT22;9320;50.256;19.026;2022-11-20T00:08:49;-2.30;99.90
18388;DHT22;9320;50.256;19.026;2022-11-20T00:11:19;-2.20;99.90
18388;DHT22;9320;50.256;19.026;2022-11-20T00:13:48;-2.20;99.90
18388;DHT22;9320;50.256;19.026;2022-11-20T00:16:19;-1.90;99.90
18388;DHT22;9320;50.256;19.026;2022-11-20T00:18:48;-2.00;99.90
18388;DHT22;9320;50.256;19.026;2022-11-20T00:21:18;-2.10;99.90
18388;DHT22;9320;50.256;19.026;2022-11-20T00:23:48;-1.90;99.90
18388;DHT22;9320;50.256;19.026;2022-11-20T00:26:18;-1.90;99.90
18388;DHT22;9320;50.256;19.026;2022-11-20T00:28:50;-2.00;99.90
18388;DHT22;9320;50.256;19.026;2022-11-20T00:31:19;-2.10;99.90
18388;DHT22;9320;50.256;19.026;2022-11-20T00:33:49;-2.40;99.90
18388;DHT22;9320;50.256;19.026;2022-11-20T00:36:18;-2.50;99.90
18388;DHT22;9320;50.256;19.026;2022-11-20T00:38:50;-2.50;99.90
18388;DHT22;9320;50.256;19.026;2022-11-20T00:41:18;-2.30;99.90
18388;DHT22;9320;50.256;19.026;2022-11-20T00:43:46;-2.40;99.90
18388;DHT22;9320;50.256;19.026;2022-11-20T00:46:16;-2.40;99.90
18388;DHT22;9320;50.256;19.026;2022-11-20T00:48:44;-2.30;99.90
18388;DHT22;9320;50.256;19.026;2022-11-20T00:51:16;-2.30;99.90
18388;DHT22;9320;50.256;19.026;2022-11-20T00:53:45;-2.20;99.90
18388;DHT22;9320;50.256;19.026;2022-11-20T00:56:14;-2.40;99.90
18388;DHT22;9320;50.256;19.026;2022-11-20T00:58:44;-2.50;99.90
18388;DHT22;9320;50.256;19.026;2022-11-20T01:01:15;-2.40;99.90
18388;DHT22;9320;50.256;19.026;2022-11-20T01:03:45;-2.40;99.90
18388;DHT22;9320;50.256;19.026;2022-11-20T01:06:16;-2.30;99.90
18388;DHT22;9320;50.256;19.026;2022-11-20T01:08:45;-2.30;99.90
18388;DHT22;9320;50.256;19.026;2022-11-20T01:11:14;-2.30;99.90
18388;DHT22;9320;50.256;19.026;2022-11-20T01:13:44;-2.40;99.90
18388;DHT22;9320;50.256;19.026;2022-11-20T01:16:14;-2.50;99.90
18388;DHT22;9320;50.256;19.026;2022-11-20T01:18:45;-2.70;99.90
18388;DHT22;9320;50.256;19.026;2022-11-20T01:21:16;-2.60;99.90
18388;DHT22;9320;50.256;19.026;2022-11-20T01:23:45;-2.50;99.90
18388;DHT22;9320;50.256;19.026;2022-11-20T01:26:16;-2.60;99.90
18388;DHT22;9320;50.256;19.026;2022-11-20T01:28:44;-2.50;99.90
18388;DHT22;9320;50.256;19.026;2022-11-20T01:31:14;-2.70;99.90
18388;DHT22;9320;50.256;19.026;2022-11-20T01:33:44;-2.80;99.90
18388;DHT22;9320;50.256;19.026;2022-11-20T01:36:14;-2.70;99.90
18388;DHT22;9320;50.256;19.026;2022-11-20T01:38:43;-2.60;99.90
18388;DHT22;9320;50.256;19.026;2022-11-20T01:41:12;-2.70;99.90
18388;DHT22;9320;50.256;19.026;2022-11-20T01:44:02;-2.80;99.90
18388;DHT22;9320;50.256;19.026;2022-11-20T01:46:31;-2.70;99.90
18388;DHT22;9320;50.256;19.026;2022-11-20T01:49:01;-2.70;99.90
18388;DHT22;9320;50.256;19.026;2022-11-20T01:51:38;-2.70;99.90
18388;DHT22;9320;50.256;19.026;2022-11-20T01:54:09;-2.90;99.90
18388;DHT22;9320;50.256;19.026;2022-11-20T01:56:42;-2.80;99.90
18388;DHT22;9320;50.256;19.026;2022-11-20T01:59:13;-2.80;99.90
18388;DHT22;9320;50.256;19.026;2022-11-20T02:01:44;-2.70;99.90
18388;DHT22;9320;50.256;19.026;2022-11-20T02:04:13;-2.50;99.90
18388;DHT22;9320;50.256;19.026;2022-11-20T02:06:44;-2.50;99.90
18388;DHT22;9320;50.256;19.026;2022-11-20T02:09:14;-2.60;99.90
18388;DHT22;9320;50.256;19.026;2022-11-20T02:11:42;-2.60;99.90
18388;DHT22;9320;50.256;19.026;2022-11-20T02:14:10;-3.00;99.90
18388;DHT22;9320;50.256;19.026;2022-11-20T02:16:40;-3.10;99.90
18388;DHT22;9320;50.256;19.026;2022-11-20T02:19:19;-3.10;99.90
18388;DHT22;9320;50.256;19.026;2022-11-20T02:22:00;-2.60;99.90
18388;DHT22;9320;50.256;19.026;2022-11-20T02:24:31;-2.70;99.90
18388;DHT22;9320;50.256;19.026;2022-11-20T02:27:01;-2.50;99.90
18388;DHT22;9320;50.256;19.026;2022-11-20T02:29:33;-2.70;99.90
18388;DHT22;9320;50.256;19.026;2022-11-20T02:32:03;-3.00;99.90
18388;DHT22;9320;50.256;19.026;2022-11-20T02:34:31;-3.10;99.90
18388;DHT22;9320;50.256;19.026;2022-11-20T02:37:00;-3.10;99.90
18388;DHT22;9320;50.256;19.026;2022-11-20T02:39:28;-3.10;99.90
18388;DHT22;9320;50.256;19.026;2022-11-20T02:42:01;-3.30;99.90
18388;DHT22;9320;50.256;19.026;2022-11-20T02:44:29;-3.50;99.90
18388;DHT22;9320;50.256;19.026;2022-11-20T02:46:57;-3.60;99.90
18388;DHT22;9320;50.256;19.026;2022-11-20T02:49:25;-3.70;99.90
18388;DHT22;9320;50.256;19.026;2022-11-20T02:51:53;-3.70;99.90
18388;DHT22;9320;50.256;19.026;2022-11-20T02:54:21;-3.30;99.90
18388;DHT22;9320;50.256;19.026;2022-11-20T02:56:49;-3.10;99.90
18388;DHT22;9320;50.256;19.026;2022-11-20T02:59:19;-3.00;99.90
18388;DHT22;9320;50.256;19.026;2022-11-20T03:01:47;-3.00;99.90
18388;DHT22;9320;50.256;19.026;2022-11-20T03:04:15;-3.00;99.90
18388;DHT22;9320;50.256;19.026;2022-11-20T03:06:43;-2.80;99.90
18388;DHT22;9320;50.256;19.026;2022-11-20T03:09:12;-2.70;99.90
18388;DHT22;9320;50.256;19.026;2022-11-20T03:11:40;-2.70;99.90
18388;DHT22;9320;50.256;19.026;2022-11-20T03:14:08;-2.70;99.90
18388;DHT22;9320;50.256;19.026;2022-11-20T03:16:37;-2.80;99.90
18388;DHT22;9320;50.256;19.026;2022-11-20T03:19:05;-3.00;99.90
18388;DHT22;9320;50.256;19.026;2022-11-20T03:21:34;-3.20;99.90
18388;DHT22;9320;50.256;19.026;2022-11-20T03:24:02;-3.10;99.90
18388;DHT22;9320;50.256;19.026;2022-11-20T03:26:30;-3.30;99.90
18388;DHT22;9320;50.256;19.026;2022-11-20T03:28:59;-3.40;99.90
18388;DHT22;9320;50.256;19.026;2022-11-20T03:31:30;-3.40;99.90
18388;DHT22;9320;50.256;19.026;2022-11-20T03:34:00;-3.10;99.90
18388;DHT22;9320;50.256;19.026;2022-11-20T03:36:29;-3.00;99.90
18388;DHT22;9320;50.256;19.026;2022-11-20T03:38:57;-3.00;99.90
18388;DHT22;9320;50.256;19.026;2022-11-20T03:41:27;-3.10;99.90
18388;DHT22;9320;50.256;19.026;2022-11-20T03:43:58;-3.10;99.90
18388;DHT22;9320;50.256;19.026;2022-11-20T03:46:27;-3.10;99.90
18388;DHT22;9320;50.256;19.026;2022-11-20T03:48:55;-3.00;99.90
18388;DHT22;9320;50.256;19.026;2022-11-20T03:51:26;-3.10;99.90
18388;DHT22;9320;50.256;19.026;2022-11-20T03:53:55;-3.00;99.90
18388;DHT22;9320;50.256;19.026;2022-11-20T03:56:26;-3.00;99.90
18388;DHT22;9320;50.256;19.026;2022-11-20T03:58:54;-2.80;99.90
18388;DHT22;9320;50.256;19.026;2022-11-20T04:01:24;-3.30;99.90
18388;DHT22;9320;50.256;19.026;2022-11-20T04:03:53;-3.10;99.90
18388;DHT22;9320;50.256;19.026;2022-11-20T04:06:25;-2.70;99.90
18388;DHT22;9320;50.256;19.026;2022-11-20T04:08:54;-2.70;99.90
18388;DHT22;9320;50.256;19.026;2022-11-20T04:11:24;-2.60;99.90
18388;DHT22;9320;50.256;19.026;2022-11-20T04:13:53;-2.70;99.90
18388;DHT22;9320;50.256;19.026;2022-11-20T04:16:22;-2.70;99.90
18388;DHT22;9320;50.256;19.026;2022-11-20T04:18:52;-2.70;99.90
18388;DHT22;9320;50.256;19.026;2022-11-20T04:21:20;-2.70;99.90
18388;DHT22;9320;50.256;19.026;2022-11-20T04:23:50;-2.70;99.90
18388;DHT22;9320;50.256;19.026;2022-11-20T04:26:20;-2.70;99.90
18388;DHT22;9320;50.256;19.026;2022-11-20T04:28:49;-2.80;99.90
18388;DHT22;9320;50.256;19.026;2022-11-20T04:31:18;-2.90;99.90
18388;DHT22;9320;50.256;19.026;2022-11-20T04:33:47;-2.80;99.90
18388;DHT22;9320;50.256;19.026;2022-11-20T04:36:16;-2.70;99.90
18388;DHT22;9320;50.256;19.026;2022-11-20T04:38:45;-2.70;99.90
18388;DHT22;9320;50.256;19.026;2022-11-20T04:41:25;-2.90;99.90
18388;DHT22;9320;50.256;19.026;2022-11-20T04:43:54;-2.90;99.90
18388;DHT22;9320;50.256;19.026;2022-11-20T04:46:27;-2.80;99.90
18388;DHT22;9320;50.256;19.026;2022-11-20T04:48:55;-2.70;99.90
18388;DHT22;9320;50.256;19.026;2022-11-20T04:51:23;-2.80;99.90
18388;DHT22;9320;50.256;19.026;2022-11-20T04:53:51;-2.80;99.90
18388;DHT22;9320;50.256;19.026;2022-11-20T04:56:19;-2.90;99.90
18388;DHT22;9320;50.256;19.026;2022-11-20T04:58:49;-3.00;99.90
18388;DHT22;9320;50.256;19.026;2022-11-20T05:01:19;-2.90;99.90
18388;DHT22;9320;50.256;19.026;2022-11-20T05:03:47;-2.90;99.90
18388;DHT22;9320;50.256;19.026;2022-11-20T05:06:16;-3.10;99.90
18388;DHT22;9320;50.256;19.026;2022-11-20T05:08:44;-3.00;99.90
18388;DHT22;9320;50.256;19.026;2022-11-20T05:11:15;-3.00;99.90
18388;DHT22;9320;50.256;19.026;2022-11-20T05:13:43;-3.00;99.90
18388;DHT22;9320;50.256;19.026;2022-11-20T05:16:15;-2.90;99.90
18388;DHT22;9320;50.256;19.026;2022-11-20T05:18:43;-2.80;99.90
18388;DHT22;9320;50.256;19.026;2022-11-20T05:21:12;-2.80;99.90
18388;DHT22;9320;50.256;19.026;2022-11-20T05:23:41;-2.90;99.90
18388;DHT22;9320;50.256;19.026;2022-11-20T05:26:13;-3.20;99.90
18388;DHT22;9320;50.256;19.026;2022-11-20T05:28:41;-3.10;99.90
18388;DHT22;9320;50.256;19.026;2022-11-20T05:31:12;-3.00;99.90
18388;DHT22;9320;50.256;19.026;2022-11-20T05:33:41;-2.80;99.90
18388;DHT22;9320;50.256;19.026;2022-11-20T05:36:10;-2.60;99.90
18388;DHT22;9320;50.256;19.026;2022-11-20T05:38:40;-2.40;99.90
18388;DHT22;9320;50.256;19.026;2022-11-20T05:41:09;-2.50;99.50
18388;DHT22;9320;50.256;19.026;2022-11-20T05:43:38;-2.40;99.90
18388;DHT22;9320;50.256;19.026;2022-11-20T05:46:08;-2.60;99.40
18388;DHT22;9320;50.256;19.026;2022-11-20T05:48:38;-2.80;99.90
18388;DHT22;9320;50.256;19.026;2022-11-20T05:51:08;-3.00;99.90
18388;DHT22;9320;50.256;19.026;2022-11-20T05:53:37;-2.90;99.90
18388;DHT22;9320;50.256;19.026;2022-11-20T05:56:13;-3.00;99.90
18388;DHT22;9320;50.256;19.026;2022-11-20T05:58:42;-3.10;99.90
18388;DHT22;9320;50.256;19.026;2022-11-20T06:01:13;-3.30;99.90
18388;DHT22;9320;50.256;19.026;2022-11-20T06:03:43;-3.20;99.90
18388;DHT22;9320;50.256;19.026;2022-11-20T06:06:14;-3.20;99.90
18388;DHT22;9320;50.256;19.026;2022-11-20T06:08:43;-3.20;99.90
18388;DHT22;9320;50.256;19.026;2022-11-20T06:11:12;-3.20;99.90
18388;DHT22;9320;50.256;19.026;2022-11-20T06:13:41;-3.20;99.90
18388;DHT22;9320;50.256;19.026;2022-11-20T06:16:10;-3.20;99.90
18388;DHT22;9320;50.256;19.026;2022-11-20T06:18:39;-3.10;99.90
18388;DHT22;9320;50.256;19.026;2022-11-20T06:21:10;-3.20;99.90
18388;DHT22;9320;50.256;19.026;2022-11-20T06:23:38;-3.10;99.90
18388;DHT22;9320;50.256;19.026;2022-11-20T06:26:07;-3.10;99.90
18388;DHT22;9320;50.256;19.026;2022-11-20T06:28:36;-3.10;99.90
18388;DHT22;9320;50.256;19.026;2022-11-20T06:31:05;-3.60;99.90
18388;DHT22;9320;50.256;19.026;2022-11-20T06:33:33;-3.50;99.90
18388;DHT22;9320;50.256;19.026;2022-11-20T06:36:02;-3.20;99.90
18388;DHT22;9320;50.256;19.026;2022-11-20T06:38:38;-3.10;99.90
18388;DHT22;9320;50.256;19.026;2022-11-20T06:41:08;-3.20;99.90
18388;DHT22;9320;50.256;19.026;2022-11-20T06:43:37;-3.20;99.90
18388;DHT22;9320;50.256;19.026;2022-11-20T06:46:05;-3.40;99.90
18388;DHT22;9320;50.256;19.026;2022-11-20T06:48:33;-3.40;99.90
18388;DHT22;9320;50.256;19.026;2022-11-20T06:51:03;-3.40;99.90
18388;DHT22;9320;50.256;19.026;2022-11-20T06:53:31;-3.40;99.90
18388;DHT22;9320;50.256;19.026;2022-11-20T06:56:01;-3.30;99.90
18388;DHT22;9320;50.256;19.026;2022-11-20T06:58:30;-3.20;99.90
18388;DHT22;9320;50.256;19.026;2022-11-20T07:00:58;-3.30;99.90
18388;DHT22;9320;50.256;19.026;2022-11-20T07:03:26;-3.20;99.90
18388;DHT22;9320;50.256;19.026;2022-11-20T07:05:55;-3.20;99.90
18388;DHT22;9320;50.256;19.026;2022-11-20T07:08:24;-3.10;99.90
18388;DHT22;9320;50.256;19.026;2022-11-20T07:10:52;-3.00;99.90
18388;DHT22;9320;50.256;19.026;2022-11-20T07:13:25;-2.90;99.90
18388;DHT22;9320;50.256;19.026;2022-11-20T07:15:54;-2.80;99.90
18388;DHT22;9320;50.256;19.026;2022-11-20T07:18:22;-2.90;99.90
18388;DHT22;9320;50.256;19.026;2022-11-20T07:20:50;-2.80;99.90
18388;DHT22;9320;50.256;19.026;2022-11-20T07:23:18;-2.80;99.90
18388;DHT22;9320;50.256;19.026;2022-11-20T07:25:46;-2.70;99.90
18388;DHT22;9320;50.256;19.026;2022-11-20T07:28:14;-2.50;99.90
18388;DHT22;9320;50.256;19.026;2022-11-20T07:30:49;-2.30;99.90
18388;DHT22;9320;50.256;19.026;2022-11-20T07:33:18;-2.40;99.90
18388;DHT22;9320;50.256;19.026;2022-11-20T07:35:46;-2.30;99.90
18388;DHT22;9320;50.256;19.026;2022-11-20T07:38:14;-2.20;99.90
18388;DHT22;9320;50.256;19.026;2022-11-20T07:40:42;-2.20;99.90
18388;DHT22;9320;50.256;19.026;2022-11-20T07:43:10;-2.20;99.90
18388;DHT22;9320;50.256;19.026;2022-11-20T07:45:38;-2.00;99.90
18388;DHT22;9320;50.256;19.026;2022-11-20T07:48:08;-1.90;99.90
18388;DHT22;9320;50.256;19.026;2022-11-20T07:50:36;-2.00;99.90
18388;DHT22;9320;50.256;19.026;2022-11-20T07:53:04;-2.40;99.90
18388;DHT22;9320;50.256;19.026;2022-11-20T07:55:32;-2.60;99.90
18388;DHT22;9320;50.256;19.026;2022-11-20T07:58:01;-1.90;99.90
18388;DHT22;9320;50.256;19.026;2022-11-20T08:00:29;-2.10;99.90
18388;DHT22;9320;50.256;19.026;2022-11-20T08:02:57;-2.00;99.90
18388;DHT22;9320;50.256;19.026;2022-11-20T08:05:26;-1.80;99.90
18388;DHT22;9320;50.256;19.026;2022-11-20T08:07:54;-1.80;99.90
18388;DHT22;9320;50.256;19.026;2022-11-20T08:10:22;-1.50;99.90
18388;DHT22;9320;50.256;19.026;2022-11-20T08:12:51;-1.20;99.90
18388;DHT22;9320;50.256;19.026;2022-11-20T08:15:39;-1.00;99.90
18388;DHT22;9320;50.256;19.026;2022-11-20T08:18:09;-0.90;99.90
18388;DHT22;9320;50.256;19.026;2022-11-20T08:21:02;-0.70;99.90
18388;DHT22;9320;50.256;19.026;2022-11-20T08:23:30;-0.60;99.90
18388;DHT22;9320;50.256;19.026;2022-11-20T08:25:58;-0.50;99.90
18388;DHT22;9320;50.256;19.026;2022-11-20T08:28:26;-0.50;99.90
18388;DHT22;9320;50.256;19.026;2022-11-20T08:30:58;-0.90;99.90
18388;DHT22;9320;50.256;19.026;2022-11-20T08:33:26;-0.70;99.90
18388;DHT22;9320;50.256;19.026;2022-11-20T08:35:59;-0.30;99.90
18388;DHT22;9320;50.256;19.026;2022-11-20T08:38:28;-0.30;99.90
18388;DHT22;9320;50.256;19.026;2022-11-20T08:40:57;-0.10;99.90
18388;DHT22;9320;50.256;19.026;2022-11-20T08:43:43;0.10;99.90
18388;DHT22;9320;50.256;19.026;2022-11-20T08:46:11;0.20;99.90
18388;DHT22;9320;50.256;19.026;2022-11-20T08:48:39;0.80;99.90
18388;DHT22;9320;50.256;19.026;2022-11-20T08:51:09;0.90;99.90
18388;DHT22;9320;50.256;19.026;2022-11-20T08:53:37;1.20;99.90
18388;DHT22;9320;50.256;19.026;2022-11-20T08:56:06;1.50;98.70
18388;DHT22;9320;50.256;19.026;2022-11-20T08:58:34;1.20;98.10
18388;DHT22;9320;50.256;19.026;2022-11-20T09:01:22;1.30;98.10
18388;DHT22;9320;50.256;19.026;2022-11-20T09:03:51;1.60;98.20
18388;DHT22;9320;50.256;19.026;2022-11-20T09:06:20;1.80;96.90
18388;DHT22;9320;50.256;19.026;2022-11-20T09:08:51;1.90;96.50
18388;DHT22;9320;50.256;19.026;2022-11-20T09:11:20;2.00;96.50
18388;DHT22;9320;50.256;19.026;2022-11-20T09:13:48;2.20;96.50
18388;DHT22;9320;50.256;19.026;2022-11-20T09:16:16;2.20;96.10
18388;DHT22;9320;50.256;19.026;2022-11-20T09:18:44;2.40;96.10
18388;DHT22;9320;50.256;19.026;2022-11-20T09:21:13;2.50;95.60
18388;DHT22;9320;50.256;19.026;2022-11-20T09:23:42;2.60;94.80
18388;DHT22;9320;50.256;19.026;2022-11-20T09:26:12;2.80;94.90
18388;DHT22;9320;50.256;19.026;2022-11-20T09:28:40;2.90;93.90
18388;DHT22;9320;50.256;19.026;2022-11-20T09:31:11;2.60;94.00
18388;DHT22;9320;50.256;19.026;2022-11-20T09:33:42;2.70;94.20
18388;DHT22;9320;50.256;19.026;2022-11-20T09:36:10;2.80;93.80
18388;DHT22;9320;50.256;19.026;2022-11-20T09:38:38;2.70;94.20
18388;DHT22;9320;50.256;19.026;2022-11-20T09:41:27;2.80;94.10
18388;DHT22;9320;50.256;19.026;2022-11-20T09:44:04;2.80;93.80
18388;DHT22;9320;50.256;19.026;2022-11-20T09:46:40;3.00;93.60
18388;DHT22;9320;50.256;19.026;2022-11-20T09:49:23;3.30;93.10
18388;DHT22;9320;50.256;19.026;2022-11-20T09:51:59;3.40;92.90
18388;DHT22;9320;50.256;19.026;2022-11-20T09:54:30;3.30;92.70
18388;DHT22;9320;50.256;19.026;2022-11-20T09:57:01;3.60;92.10
18388;DHT22;9320;50.256;19.026;2022-11-20T09:59:36;3.90;92.00
18388;DHT22;9320;50.256;19.026;2022-11-20T10:02:16;4.10;91.40
18388;DHT22;9320;50.256;19.026;2022-11-20T10:04:49;4.00;91.00
18388;DHT22;9320;50.256;19.026;2022-11-20T10:07:23;3.80;90.90
18388;DHT22;9320;50.256;19.026;2022-11-20T10:10:00;3.80;90.90
18388;DHT22;9320;50.256;19.026;2022-11-20T10:12:36;3.90;90.50
18388;DHT22;9320;50.256;19.026;2022-11-20T10:15:18;4.00;91.20
18388;DHT22;9320;50.256;19.026;2022-11-20T10:18:02;4.20;91.00
18388;DHT22;9320;50.256;19.026;2022-11-20T10:20:42;3.90;90.90
18388;DHT22;9320;50.256;19.026;2022-11-20T10:23:45;4.10;90.40
18388;DHT22;9320;50.256;19.026;2022-11-20T10:26:20;4.00;90.80
18388;DHT22;9320;50.256;19.026;2022-11-20T10:29:01;3.60;91.20
18388;DHT22;9320;50.256;19.026;2022-11-20T10:31:36;3.70;91.50
18388;DHT22;9320;50.256;19.026;2022-11-20T10:34:07;3.90;90.80
18388;DHT22;9320;50.256;19.026;2022-11-20T10:36:49;4.10;91.30
18388;DHT22;9320;50.256;19.026;2022-11-20T10:39:25;4.20;90.40
18388;DHT22;9320;50.256;19.026;2022-11-20T10:41:56;3.90;90.00
18388;DHT22;9320;50.256;19.026;2022-11-20T10:44:28;3.90;90.40
18388;DHT22;9320;50.256;19.026;2022-11-20T10:47:13;4.30;90.30
18388;DHT22;9320;50.256;19.026;2022-11-20T10:49:43;4.50;89.00
18388;DHT22;9320;50.256;19.026;2022-11-20T10:52:18;4.40;89.80
18388;DHT22;9320;50.256;19.026;2022-11-20T10:54:54;4.50;87.60
18388;DHT22;9320;50.256;19.026;2022-11-20T10:57:34;4.60;89.00
18388;DHT22;9320;50.256;19.026;2022-11-20T11:00:11;4.80;87.80
18388;DHT22;9320;50.256;19.026;2022-11-20T11:02:43;4.90;87.00
18388;DHT22;9320;50.256;19.026;2022-11-20T11:05:23;4.60;88.10
18388;DHT22;9320;50.256;19.026;2022-11-20T11:07:55;4.40;88.10
18388;DHT22;9320;50.256;19.026;2022-11-20T11:10:26;4.40;88.20
18388;DHT22;9320;50.256;19.026;2022-11-20T11:12:56;4.30;87.60
18388;DHT22;9320;50.256;19.026;2022-11-20T11:15:28;4.20;88.80
18388;DHT22;9320;50.256;19.026;2022-11-20T11:17:56;4.20;88.90
18388;DHT22;9320;50.256;19.026;2022-11-20T11:20:26;4.30;90.00
18388;DHT22;9320;50.256;19.026;2022-11-20T11:22:55;4.30;89.80
18388;DHT22;9320;50.256;19.026;2022-11-20T11:25:27;4.30;89.50
18388;DHT22;9320;50.256;19.026;2022-11-20T11:27:57;4.10;89.80
18388;DHT22;9320;50.256;19.026;2022-11-20T11:30:28;3.90;90.40
18388;DHT22;9320;50.256;19.026;2022-11-20T11:33:06;4.00;90.60
18388;DHT22;9320;50.256;19.026;2022-11-20T11:35:44;3.90;91.20
18388;DHT22;9320;50.256;19.026;2022-11-20T11:38:21;3.50;91.70
18388;DHT22;9320;50.256;19.026;2022-11-20T11:40:49;3.90;91.90
18388;DHT22;9320;50.256;19.026;2022-11-20T11:43:23;3.90;91.50
18388;DHT22;9320;50.256;19.026;2022-11-20T11:46:27;4.10;91.20
18388;DHT22;9320;50.256;19.026;2022-11-20T11:48:58;3.70;91.00
18388;DHT22;9320;50.256;19.026;2022-11-20T11:51:32;3.90;91.90
18388;DHT22;9320;50.256;19.026;2022-11-20T11:54:03;3.80;91.20
18388;DHT22;9320;50.256;19.026;2022-11-20T11:56:33;4.00;91.10
18388;DHT22;9320;50.256;19.026;2022-11-20T11:59:04;3.90;90.90
18388;DHT22;9320;50.256;19.026;2022-11-20T12:01:43;4.00;90.90
18388;DHT22;9320;50.256;19.026;2022-11-20T12:04:19;4.00;90.80
18388;DHT22;9320;50.256;19.026;2022-11-20T12:06:53;4.00;91.20
18388;DHT22;9320;50.256;19.026;2022-11-20T12:09:34;4.20;91.10
18388;DHT22;9320;50.256;19.026;2022-11-20T12:12:07;4.30;90.60
18388;DHT22;9320;50.256;19.026;2022-11-20T12:14:37;4.40;90.90
18388;DHT22;9320;50.256;19.026;2022-11-20T12:17:11;4.50;90.60
18388;DHT22;9320;50.256;19.026;2022-11-20T12:19:40;4.40;91.00
18388;DHT22;9320;50.256;19.026;2022-11-20T12:22:17;4.40;90.90
18388;DHT22;9320;50.256;19.026;2022-11-20T12:24:54;4.50;91.30
18388;DHT22;9320;50.256;19.026;2022-11-20T12:27:45;4.60;90.60
18388;DHT22;9320;50.256;19.026;2022-11-20T12:30:17;4.50;91.20
18388;DHT22;9320;50.256;19.026;2022-11-20T12:33:06;4.50;90.90
18388;DHT22;9320;50.256;19.026;2022-11-20T12:35:44;4.30;90.80
18388;DHT22;9320;50.256;19.026;2022-11-20T12:41:19;4.00;91.60
18388;DHT22;9320;50.256;19.026;2022-11-20T12:44:14;4.20;91.80
18388;DHT22;9320;50.256;19.026;2022-11-20T12:47:14;4.10;91.60
18388;DHT22;9320;50.256;19.026;2022-11-20T12:49:51;4.10;92.00
18388;DHT22;9320;50.256;19.026;2022-11-20T12:52:37;4.00;91.90
18388;DHT22;9320;50.256;19.026;2022-11-20T12:55:28;3.70;92.60
18388;DHT22;9320;50.256;19.026;2022-11-20T12:58:05;3.60;92.60
18388;DHT22;9320;50.256;19.026;2022-11-20T13:00:38;3.90;92.80
18388;DHT22;9320;50.256;19.026;2022-11-20T13:03:22;3.70;92.90
18388;DHT22;9320;50.256;19.026;2022-11-20T13:05:59;3.70;92.80
18388;DHT22;9320;50.256;19.026;2022-11-20T13:08:34;3.70;93.10
18388;DHT22;9320;50.256;19.026;2022-11-20T13:11:11;3.70;93.10
18388;DHT22;9320;50.256;19.026;2022-11-20T13:13:50;3.60;93.40
18388;DHT22;9320;50.256;19.026;2022-11-20T13:16:27;3.70;93.30
18388;DHT22;9320;50.256;19.026;2022-11-20T13:19:01;3.70;93.10
18388;DHT22;9320;50.256;19.026;2022-11-20T13:21:38;3.70;93.40
18388;DHT22;9320;50.256;19.026;2022-11-20T13:24:07;3.60;93.60
18388;DHT22;9320;50.256;19.026;2022-11-20T13:26:35;3.60;93.60
18388;DHT22;9320;50.256;19.026;2022-11-20T13:29:09;3.60;93.90
18388;DHT22;9320;50.256;19.026;2022-11-20T13:31:43;3.60;93.60
18388;DHT22;9320;50.256;19.026;2022-11-20T13:34:13;3.40;94.20
18388;DHT22;9320;50.256;19.026;2022-11-20T13:36:53;3.30;94.30
18388;DHT22;9320;50.256;19.026;2022-11-20T13:39:25;3.40;94.40
18388;DHT22;9320;50.256;19.026;2022-11-20T13:41:54;3.20;94.60
18388;DHT22;9320;50.256;19.026;2022-11-20T13:44:25;3.30;94.40
18388;DHT22;9320;50.256;19.026;2022-11-20T13:46:54;3.30;94.40
18388;DHT22;9320;50.256;19.026;2022-11-20T13:49:26;3.50;94.60
18388;DHT22;9320;50.256;19.026;2022-11-20T13:52:17;3.50;94.30
18388;DHT22;9320;50.256;19.026;2022-11-20T13:55:07;3.50;94.10
18388;DHT22;9320;50.256;19.026;2022-11-20T13:58:05;3.40;94.20
18388;DHT22;9320;50.256;19.026;2022-11-20T14:00:43;3.20;94.50
18388;DHT22;9320;50.256;19.026;2022-11-20T14:03:18;3.20;94.40
18388;DHT22;9320;50.256;19.026;2022-11-20T14:06:12;3.00;94.70
18388;DHT22;9320;50.256;19.026;2022-11-20T14:08:46;3.10;95.20
18388;DHT22;9320;50.256;19.026;2022-11-20T14:11:16;3.20;94.90
18388;DHT22;9320;50.256;19.026;2022-11-20T14:13:56;3.30;94.90
18388;DHT22;9320;50.256;19.026;2022-11-20T14:16:27;3.20;94.90
18388;DHT22;9320;50.256;19.026;2022-11-20T14:18:56;3.30;94.50
18388;DHT22;9320;50.256;19.026;2022-11-20T14:21:26;3.40;94.60
18388;DHT22;9320;50.256;19.026;2022-11-20T14:24:04;3.10;94.60
18388;DHT22;9320;50.256;19.026;2022-11-20T14:26:33;3.30;94.90
18388;DHT22;9320;50.256;19.026;2022-11-20T14:29:01;3.30;94.50
18388;DHT22;9320;50.256;19.026;2022-11-20T14:31:29;3.30;94.90
18388;DHT22;9320;50.256;19.026;2022-11-20T14:33:58;3.30;94.70
18388;DHT22;9320;50.256;19.026;2022-11-20T14:36:27;3.10;94.90
18388;DHT22;9320;50.256;19.026;2022-11-20T14:38:55;3.00;95.00
18388;DHT22;9320;50.256;19.026;2022-11-20T14:41:25;3.10;95.20
18388;DHT22;9320;50.256;19.026;2022-11-20T14:43:56;3.30;95.40
18388;DHT22;9320;50.256;19.026;2022-11-20T14:46:24;3.50;95.00
18388;DHT22;9320;50.256;19.026;2022-11-20T14:48:55;3.60;94.70
18388;DHT22;9320;50.256;19.026;2022-11-20T14:51:29;3.70;94.50
18388;DHT22;9320;50.256;19.026;2022-11-20T14:54:08;3.80;94.10
18388;DHT22;9320;50.256;19.026;2022-11-20T14:56:38;3.60;94.40
18388;DHT22;9320;50.256;19.026;2022-11-20T14:59:07;3.50;94.60
18388;DHT22;9320;50.256;19.026;2022-11-20T15:01:36;3.40;94.60
18388;DHT22;9320;50.256;19.026;2022-11-20T15:04:07;3.60;94.90
18388;DHT22;9320;50.256;19.026;2022-11-20T15:06:37;3.60;94.50
18388;DHT22;9320;50.256;19.026;2022-11-20T15:09:16;3.70;94.20
18388;DHT22;9320;50.256;19.026;2022-11-20T15:11:54;3.40;94.50
18388;DHT22;9320;50.256;19.026;2022-11-20T15:14:23;3.40;94.60
18388;DHT22;9320;50.256;19.026;2022-11-20T15:16:52;3.50;94.70
18388;DHT22;9320;50.256;19.026;2022-11-20T15:19:22;3.50;94.40
18388;DHT22;9320;50.256;19.026;2022-11-20T15:21:50;3.60;94.80
18388;DHT22;9320;50.256;19.026;2022-11-20T15:24:18;3.70;94.50
18388;DHT22;9320;50.256;19.026;2022-11-20T15:26:47;3.70;94.50
18388;DHT22;9320;50.256;19.026;2022-11-20T15:29:17;3.80;94.30
18388;DHT22;9320;50.256;19.026;2022-11-20T15:31:47;3.40;94.80
18388;DHT22;9320;50.256;19.026;2022-11-20T15:34:18;3.50;95.00
18388;DHT22;9320;50.256;19.026;2022-11-20T15:36:47;3.60;94.80
18388;DHT22;9320;50.256;19.026;2022-11-20T15:39:15;3.80;94.70
18388;DHT22;9320;50.256;19.026;2022-11-20T15:41:44;3.80;95.20
18388;DHT22;9320;50.256;19.026;2022-11-20T15:44:12;3.80;94.60
18388;DHT22;9320;50.256;19.026;2022-11-20T15:46:42;3.80;94.50
18388;DHT22;9320;50.256;19.026;2022-11-20T15:49:15;3.50;94.90
18388;DHT22;9320;50.256;19.026;2022-11-20T15:51:48;3.60;95.00
18388;DHT22;9320;50.256;19.026;2022-11-20T15:54:18;3.60;95.20
18388;DHT22;9320;50.256;19.026;2022-11-20T15:56:49;3.80;95.10
18388;DHT22;9320;50.256;19.026;2022-11-20T15:59:19;3.90;95.00
18388;DHT22;9320;50.256;19.026;2022-11-20T16:01:48;3.90;94.90
18388;DHT22;9320;50.256;19.026;2022-11-20T16:04:17;3.90;94.70
18388;DHT22;9320;50.256;19.026;2022-11-20T16:06:45;3.90;95.00
18388;DHT22;9320;50.256;19.026;2022-11-20T16:09:13;3.80;95.20